sensor_id;sensor_type;location;lat;lon;timestamp;pressure;altitude;pressure_sealevel;temperature;humidity
63347;BME280;49472;49.880;8.650;2022-10-31T00:00:44;100464.72;;;40.22;23.23
63347;BME280;49472;49.880;8.650;2022-10-31T00:03:09;100456.59;;;40.13;22.88
63347;BME280;49472;49.880;8.650;2022-10-31T00:05:34;100459.69;;;40.06;23.31
63347;BME280;49472;49.880;8.650;2022-10-31T00:07:59;100454.75;;;39.86;23.32
63347;BME280;49472;49.880;8.650;2022-10-31T00:10:25;100456.81;;;40.03;22.73
63347;BME280;49472;49.880;8.650;2022-10-31T00:12:51;100458.69;;;40.16;22.84
63347;BME280;49472;49.880;8.650;2022-10-31T00:15:16;100466.09;;;39.64;23.31
63347;BME280;49472;49.880;8.650;2022-10-31T00:17:42;100467.41;;;39.94;22.92
63347;BME280;49472;49.880;8.650;2022-10-31T00:20:07;100459.63;;;39.37;23.32
63347;BME280;49472;49.880;8.650;2022-10-31T00:22:33;100460.84;;;39.72;23.13
63347;BME280;49472;49.880;8.650;2022-10-31T00:24:58;100461.06;;;39.76;23.12
63347;BME280;49472;49.880;8.650;2022-10-31T00:27:23;100464.59;;;39.71;22.73
63347;BME280;49472;49.880;8.650;2022-10-31T00:29:49;100460.06;;;39.72;23.14
63347;BME280;49472;49.880;8.650;2022-10-31T00:32:14;100467.56;;;39.42;23.01
63347;BME280;49472;49.880;8.650;2022-10-31T00:34:39;100470.63;;;39.82;22.66
63347;BME280;49472;49.880;8.650;2022-10-31T00:37:04;100475.91;;;39.68;23.09
63347;BME280;49472;49.880;8.650;2022-10-31T00:39:30;100467.72;;;39.32;23.08
63347;BME280;49472;49.880;8.650;2022-10-31T00:41:55;100469.69;;;39.59;22.89
63347;BME280;49472;49.880;8.650;2022-10-31T00:44:20;100473.75;;;39.70;22.67
63347;BME280;49472;49.880;8.650;2022-10-31T00:46:46;100474.53;;;39.71;22.97
63347;BME280;49472;49.880;8.650;2022-10-31T00:49:11;100478.69;;;39.63;22.83
63347;BME280;49472;49.880;8.650;2022-10-31T00:51:37;100483.63;;;39.56;23.16
63347;BME280;49472;49.880;8.650;2022-10-31T00:54:02;100487.31;;;39.46;22.91
63347;BME280;49472;49.880;8.650;2022-10-31T00:56:28;100484.06;;;38.79;23.54
63347;BME280;49472;49.880;8.650;2022-10-31T00:58:53;100479.97;;;39.19;23.24
63347;BME280;49472;49.880;8.650;2022-10-31T01:01:18;100488.97;;;39.42;23.45
63347;BME280;49472;49.880;8.650;2022-10-31T01:03:44;100477.13;;;39.62;23.09
63347;BME280;49472;49.880;8.650;2022-10-31T01:06:11;100483.44;;;39.53;22.71
63347;BME280;49472;49.880;8.650;2022-10-31T01:08:37;100479.28;;;39.60;23.03
63347;BME280;49472;49.880;8.650;2022-10-31T01:13:31;100475.22;;;39.49;22.42
63347;BME280;49472;49.880;8.650;2022-10-31T01:15:57;100482.94;;;39.50;23.31
63347;BME280;49472;49.880;8.650;2022-10-31T01:18:23;100494.06;;;39.25;22.94
63347;BME280;49472;49.880;8.650;2022-10-31T01:20:57;100488.91;;;39.61;23.21
63347;BME280;49472;49.880;8.650;2022-10-31T01:23:23;100489.13;;;39.79;22.50
63347;BME280;49472;49.880;8.650;2022-10-31T01:25:48;100488.97;;;39.42;22.90
63347;BME280;49472;49.880;8.650;2022-10-31T01:28:13;100481.28;;;39.68;22.86
63347;BME280;49472;49.880;8.650;2022-10-31T01:30:39;100482.97;;;39.32;23.08
63347;BME280;49472;49.880;8.650;2022-10-31T01:33:04;100478.28;;;39.23;23.22
63347;BME280;49472;49.880;8.650;2022-10-31T01:35:29;100486.53;;;39.27;23.04
63347;BME280;49472;49.880;8.650;2022-10-31T01:37:54;100481.53;;;39.06;23.48
63347;BME280;49472;49.880;8.650;2022-10-31T01:40:20;100483.78;;;39.32;23.22
63347;BME280;49472;49.880;8.650;2022-10-31T01:42:45;100487.03;;;39.29;23.21
63347;BME280;49472;49.880;8.650;2022-10-31T01:45:11;100483.25;;;39.30;23.20
63347;BME280;49472;49.880;8.650;2022-10-31T01:47:45;100486.09;;;39.39;22.85
63347;BME280;49472;49.880;8.650;2022-10-31T01:50:34;100476.19;;;39.53;22.66
63347;BME280;49472;49.880;8.650;2022-10-31T01:53:06;100476.50;;;38.43;24.33
63347;BME280;49472;49.880;8.650;2022-10-31T01:55:35;100470.22;;;37.86;24.30
63347;BME280;49472;49.880;8.650;2022-10-31T01:58:16;100478.53;;;38.32;24.00
63347;BME280;49472;49.880;8.650;2022-10-31T02:00:46;100468.50;;;38.43;24.17
63347;BME280;49472;49.880;8.650;2022-10-31T02:03:13;100462.91;;;39.15;23.29
63347;BME280;49472;49.880;8.650;2022-10-31T02:05:39;100456.81;;;38.96;23.27
63347;BME280;49472;49.880;8.650;2022-10-31T02:08:18;100462.88;;;39.01;23.18
63347;BME280;49472;49.880;8.650;2022-10-31T02:10:45;100460.94;;;38.88;23.30
63347;BME280;49472;49.880;8.650;2022-10-31T02:13:11;100457.69;;;39.24;22.78
63347;BME280;49472;49.880;8.650;2022-10-31T02:15:39;100458.94;;;39.13;22.93
63347;BME280;49472;49.880;8.650;2022-10-31T02:18:05;100463.63;;;38.50;23.43
63347;BME280;49472;49.880;8.650;2022-10-31T02:20:39;100454.47;;;39.08;23.22
63347;BME280;49472;49.880;8.650;2022-10-31T02:26:52;100447.63;;;39.35;22.70
63347;BME280;49472;49.880;8.650;2022-10-31T02:35:16;100448.09;;;38.71;23.61
63347;BME280;49472;49.880;8.650;2022-10-31T02:40:25;100450.69;;;38.76;23.82
63347;BME280;49472;49.880;8.650;2022-10-31T02:45:29;100445.06;;;39.11;23.20
63347;BME280;49472;49.880;8.650;2022-10-31T02:48:00;100447.28;;;39.22;22.81
63347;BME280;49472;49.880;8.650;2022-10-31T02:50:29;100446.25;;;39.04;23.48
63347;BME280;49472;49.880;8.650;2022-10-31T02:52:56;100452.63;;;38.90;23.21
63347;BME280;49472;49.880;8.650;2022-10-31T02:57:54;100450.31;;;39.02;22.84
63347;BME280;49472;49.880;8.650;2022-10-31T03:00:20;100454.00;;;39.06;23.05
63347;BME280;49472;49.880;8.650;2022-10-31T03:08:41;100453.31;;;39.14;22.92
63347;BME280;49472;49.880;8.650;2022-10-31T03:11:09;100458.91;;;38.80;23.33
63347;BME280;49472;49.880;8.650;2022-10-31T03:13:48;100458.91;;;38.99;23.41
63347;BME280;49472;49.880;8.650;2022-10-31T03:16:34;100454.09;;;38.63;23.65
63347;BME280;49472;49.880;8.650;2022-10-31T03:19:07;100455.34;;;38.84;23.19
63347;BME280;49472;49.880;8.650;2022-10-31T03:21:38;100453.75;;;39.02;23.39
63347;BME280;49472;49.880;8.650;2022-10-31T03:24:06;100452.63;;;39.41;22.54
63347;BME280;49472;49.880;8.650;2022-10-31T03:26:36;100441.81;;;39.60;22.75
63347;BME280;49472;49.880;8.650;2022-10-31T03:29:06;100437.47;;;39.78;22.18
63347;BME280;49472;49.880;8.650;2022-10-31T03:31:36;100441.38;;;38.55;23.50
63347;BME280;49472;49.880;8.650;2022-10-31T03:34:04;100441.13;;;38.32;23.88
63347;BME280;49472;49.880;8.650;2022-10-31T03:36:33;100444.72;;;38.41;23.57
63347;BME280;49472;49.880;8.650;2022-10-31T03:39:01;100442.88;;;38.61;23.77
63347;BME280;49472;49.880;8.650;2022-10-31T03:41:32;100443.53;;;38.53;23.26
63347;BME280;49472;49.880;8.650;2022-10-31T03:44:01;100434.75;;;38.52;23.40
63347;BME280;49472;49.880;8.650;2022-10-31T03:46:28;100440.22;;;38.18;23.81
63347;BME280;49472;49.880;8.650;2022-10-31T03:48:54;100434.16;;;38.55;23.59
63347;BME280;49472;49.880;8.650;2022-10-31T03:51:27;100431.22;;;39.08;23.13
63347;BME280;49472;49.880;8.650;2022-10-31T03:54:07;100420.19;;;38.77;23.32
63347;BME280;49472;49.880;8.650;2022-10-31T03:56:41;100421.59;;;38.56;23.45
63347;BME280;49472;49.880;8.650;2022-10-31T03:59:42;100414.44;;;38.70;23.67
63347;BME280;49472;49.880;8.650;2022-10-31T04:02:11;100424.25;;;38.56;23.59
63347;BME280;49472;49.880;8.650;2022-10-31T04:04:39;100418.47;;;38.49;23.85
63347;BME280;49472;49.880;8.650;2022-10-31T04:07:05;100432.00;;;38.57;23.66
63347;BME280;49472;49.880;8.650;2022-10-31T04:09:33;100420.00;;;39.06;23.03
63347;BME280;49472;49.880;8.650;2022-10-31T04:12:00;100424.38;;;38.83;23.06
63347;BME280;49472;49.880;8.650;2022-10-31T04:14:29;100425.91;;;38.71;22.92
63347;BME280;49472;49.880;8.650;2022-10-31T04:16:56;100426.09;;;38.36;23.38
63347;BME280;49472;49.880;8.650;2022-10-31T04:19:22;100421.16;;;38.49;22.97
63347;BME280;49472;49.880;8.650;2022-10-31T04:21:47;100437.75;;;38.46;23.19
63347;BME280;49472;49.880;8.650;2022-10-31T04:24:13;100431.41;;;38.60;23.60
63347;BME280;49472;49.880;8.650;2022-10-31T04:26:38;100434.81;;;38.23;23.75
63347;BME280;49472;49.880;8.650;2022-10-31T04:29:03;100433.25;;;38.22;24.08
63347;BME280;49472;49.880;8.650;2022-10-31T04:31:29;100426.78;;;38.47;23.46
63347;BME280;49472;49.880;8.650;2022-10-31T04:33:54;100424.69;;;38.44;23.35
63347;BME280;49472;49.880;8.650;2022-10-31T04:36:19;100428.34;;;38.67;23.23
63347;BME280;49472;49.880;8.650;2022-10-31T04:38:44;100428.94;;;38.64;23.45
63347;BME280;49472;49.880;8.650;2022-10-31T04:41:10;100420.78;;;38.55;23.25
63347;BME280;49472;49.880;8.650;2022-10-31T04:43:35;100424.84;;;38.53;23.34
63347;BME280;49472;49.880;8.650;2022-10-31T04:46:00;100424.69;;;38.01;23.71
63347;BME280;49472;49.880;8.650;2022-10-31T04:48:26;100433.31;;;38.17;23.68
63347;BME280;49472;49.880;8.650;2022-10-31T04:50:51;100435.78;;;38.32;23.20
63347;BME280;49472;49.880;8.650;2022-10-31T04:53:16;100435.03;;;38.27;23.49
63347;BME280;49472;49.880;8.650;2022-10-31T04:55:41;100434.03;;;38.41;23.43
63347;BME280;49472;49.880;8.650;2022-10-31T04:58:07;100435.28;;;38.49;23.38
63347;BME280;49472;49.880;8.650;2022-10-31T05:00:32;100434.03;;;38.41;23.53
63347;BME280;49472;49.880;8.650;2022-10-31T05:02:58;100436.34;;;38.29;23.32
63347;BME280;49472;49.880;8.650;2022-10-31T05:05:31;100433.25;;;38.41;23.50
63347;BME280;49472;49.880;8.650;2022-10-31T05:07:56;100431.31;;;38.28;23.52
63347;BME280;49472;49.880;8.650;2022-10-31T05:10:26;100430.22;;;38.29;23.67
63347;BME280;49472;49.880;8.650;2022-10-31T05:12:53;100428.84;;;38.12;23.86
63347;BME280;49472;49.880;8.650;2022-10-31T05:15:20;100432.28;;;38.32;23.77
63347;BME280;49472;49.880;8.650;2022-10-31T05:17:46;100429.25;;;38.43;23.17
63347;BME280;49472;49.880;8.650;2022-10-31T05:20:13;100431.38;;;38.41;23.42
63347;BME280;49472;49.880;8.650;2022-10-31T05:22:47;100428.38;;;38.48;23.23
63347;BME280;49472;49.880;8.650;2022-10-31T05:25:13;100429.41;;;38.28;23.48
63347;BME280;49472;49.880;8.650;2022-10-31T05:27:40;100419.94;;;38.60;23.50
63347;BME280;49472;49.880;8.650;2022-10-31T05:30:06;100427.53;;;38.29;23.70
63347;BME280;49472;49.880;8.650;2022-10-31T05:32:37;100414.81;;;38.45;23.44
63347;BME280;49472;49.880;8.650;2022-10-31T05:35:03;100422.25;;;38.48;23.44
63347;BME280;49472;49.880;8.650;2022-10-31T05:37:28;100427.16;;;38.16;23.71
63347;BME280;49472;49.880;8.650;2022-10-31T05:39:53;100425.72;;;38.24;23.75
63347;BME280;49472;49.880;8.650;2022-10-31T05:42:19;100428.75;;;38.36;23.31
63347;BME280;49472;49.880;8.650;2022-10-31T05:44:44;100431.53;;;38.69;23.48
63347;BME280;49472;49.880;8.650;2022-10-31T05:47:09;100428.47;;;38.19;23.74
63347;BME280;49472;49.880;8.650;2022-10-31T05:49:34;100427.19;;;38.35;23.26
63347;BME280;49472;49.880;8.650;2022-10-31T05:52:00;100429.06;;;38.35;23.25
63347;BME280;49472;49.880;8.650;2022-10-31T05:54:25;100434.63;;;38.38;23.20
63347;BME280;49472;49.880;8.650;2022-10-31T05:56:50;100432.28;;;38.56;22.72
63347;BME280;49472;49.880;8.650;2022-10-31T05:59:15;100427.78;;;38.32;23.00
63347;BME280;49472;49.880;8.650;2022-10-31T06:01:41;100429.78;;;38.40;23.01
63347;BME280;49472;49.880;8.650;2022-10-31T06:04:06;100434.19;;;38.31;22.73
63347;BME280;49472;49.880;8.650;2022-10-31T06:06:32;100431.38;;;38.22;23.14
63347;BME280;49472;49.880;8.650;2022-10-31T06:08:57;100422.84;;;38.20;22.71
63347;BME280;49472;49.880;8.650;2022-10-31T06:11:22;100416.06;;;38.28;23.26
63347;BME280;49472;49.880;8.650;2022-10-31T06:13:48;100412.94;;;38.45;22.46
63347;BME280;49472;49.880;8.650;2022-10-31T06:16:13;100426.13;;;38.55;22.60
63347;BME280;49472;49.880;8.650;2022-10-31T06:18:38;100429.53;;;38.61;22.69
63347;BME280;49472;49.880;8.650;2022-10-31T06:21:03;100422.00;;;38.63;22.41
63347;BME280;49472;49.880;8.650;2022-10-31T06:23:29;100426.19;;;38.69;22.40
63347;BME280;49472;49.880;8.650;2022-10-31T06:25:54;100416.66;;;38.44;22.87
63347;BME280;49472;49.880;8.650;2022-10-31T06:28:20;100410.00;;;38.41;23.14
63347;BME280;49472;49.880;8.650;2022-10-31T06:30:46;100410.00;;;38.41;22.75
63347;BME280;49472;49.880;8.650;2022-10-31T06:33:11;100415.53;;;39.02;22.77
63347;BME280;49472;49.880;8.650;2022-10-31T06:35:36;100418.00;;;38.41;23.17
63347;BME280;49472;49.880;8.650;2022-10-31T06:38:01;100422.91;;;38.34;22.64
63347;BME280;49472;49.880;8.650;2022-10-31T06:40:27;100419.09;;;38.40;23.18
63347;BME280;49472;49.880;8.650;2022-10-31T06:43:01;100419.97;;;38.74;22.37
63347;BME280;49472;49.880;8.650;2022-10-31T06:45:27;100417.34;;;38.12;23.64
63347;BME280;49472;49.880;8.650;2022-10-31T06:47:54;100425.44;;;38.50;22.85
63347;BME280;49472;49.880;8.650;2022-10-31T06:50:20;100431.66;;;38.40;22.99
63347;BME280;49472;49.880;8.650;2022-10-31T06:52:56;100429.41;;;38.85;22.44
63347;BME280;49472;49.880;8.650;2022-10-31T06:55:23;100425.56;;;38.58;23.09
63347;BME280;49472;49.880;8.650;2022-10-31T06:57:57;100423.66;;;39.11;22.64
63347;BME280;49472;49.880;8.650;2022-10-31T07:00:23;100433.75;;;39.00;22.36
63347;BME280;49472;49.880;8.650;2022-10-31T07:03:03;100428.72;;;38.98;22.79
63347;BME280;49472;49.880;8.650;2022-10-31T07:05:29;100430.78;;;38.82;23.03
63347;BME280;49472;49.880;8.650;2022-10-31T07:07:59;100430.75;;;38.69;23.25
63347;BME280;49472;49.880;8.650;2022-10-31T07:10:26;100428.22;;;38.58;23.83
63347;BME280;49472;49.880;8.650;2022-10-31T07:13:00;100434.97;;;38.89;23.15
63347;BME280;49472;49.880;8.650;2022-10-31T07:15:27;100429.44;;;38.66;23.02
63347;BME280;49472;49.880;8.650;2022-10-31T07:17:53;100435.31;;;38.68;22.98
63347;BME280;49472;49.880;8.650;2022-10-31T07:20:19;100444.06;;;38.87;23.18
63347;BME280;49472;49.880;8.650;2022-10-31T07:22:45;100437.94;;;38.87;23.47
63347;BME280;49472;49.880;8.650;2022-10-31T07:25:10;100449.72;;;38.86;23.08
63347;BME280;49472;49.880;8.650;2022-10-31T07:27:40;100439.44;;;39.12;22.86
63347;BME280;49472;49.880;8.650;2022-10-31T07:30:06;100436.72;;;38.79;23.29
63347;BME280;49472;49.880;8.650;2022-10-31T07:32:40;100435.94;;;38.79;23.29
63347;BME280;49472;49.880;8.650;2022-10-31T07:35:10;100438.72;;;38.87;23.22
63347;BME280;49472;49.880;8.650;2022-10-31T07:37:35;100443.44;;;38.77;23.34
63347;BME280;49472;49.880;8.650;2022-10-31T07:40:02;100435.72;;;38.94;23.34
63347;BME280;49472;49.880;8.650;2022-10-31T07:42:28;100439.50;;;38.55;23.64
63347;BME280;49472;49.880;8.650;2022-10-31T07:44:53;100444.25;;;38.58;23.08
63347;BME280;49472;49.880;8.650;2022-10-31T07:47:18;100448.44;;;38.83;23.28
63347;BME280;49472;49.880;8.650;2022-10-31T07:49:44;100441.31;;;38.60;22.94
63347;BME280;49472;49.880;8.650;2022-10-31T07:52:09;100438.72;;;38.87;23.35
63347;BME280;49472;49.880;8.650;2022-10-31T07:54:34;100435.31;;;38.68;23.30
63347;BME280;49472;49.880;8.650;2022-10-31T07:57:00;100432.84;;;38.91;22.86
63347;BME280;49472;49.880;8.650;2022-10-31T07:59:25;100436.06;;;39.06;22.55
63347;BME280;49472;49.880;8.650;2022-10-31T08:01:52;100440.03;;;39.09;22.79
63347;BME280;49472;49.880;8.650;2022-10-31T08:04:17;100435.91;;;39.30;22.27
63347;BME280;49472;49.880;8.650;2022-10-31T08:06:43;100438.66;;;39.12;22.70
63347;BME280;49472;49.880;8.650;2022-10-31T08:09:08;100440.72;;;39.15;22.81
63347;BME280;49472;49.880;8.650;2022-10-31T08:11:33;100436.94;;;39.02;22.89
63347;BME280;49472;49.880;8.650;2022-10-31T08:13:58;100430.47;;;39.03;22.78
63347;BME280;49472;49.880;8.650;2022-10-31T08:16:24;100428.34;;;38.86;23.22
63347;BME280;49472;49.880;8.650;2022-10-31T08:18:49;100432.19;;;38.99;22.72
63347;BME280;49472;49.880;8.650;2022-10-31T08:21:14;100426.34;;;39.43;22.64
63347;BME280;49472;49.880;8.650;2022-10-31T08:23:39;100425.50;;;39.29;22.41
63347;BME280;49472;49.880;8.650;2022-10-31T08:26:05;100422.22;;;39.92;22.09
63347;BME280;49472;49.880;8.650;2022-10-31T08:28:31;100426.38;;;39.85;22.32
63347;BME280;49472;49.880;8.650;2022-10-31T08:30:57;100433.38;;;39.39;22.53
63347;BME280;49472;49.880;8.650;2022-10-31T08:33:23;100428.63;;;39.36;22.83
63347;BME280;49472;49.880;8.650;2022-10-31T08:35:48;100436.56;;;39.08;22.39
63347;BME280;49472;49.880;8.650;2022-10-31T08:38:14;100422.59;;;39.44;22.69
63347;BME280;49472;49.880;8.650;2022-10-31T08:40:40;100419.47;;;40.34;21.76
63347;BME280;49472;49.880;8.650;2022-10-31T08:43:10;100410.22;;;40.63;21.69
63347;BME280;49472;49.880;8.650;2022-10-31T08:45:36;100416.19;;;40.37;22.02
63347;BME280;49472;49.880;8.650;2022-10-31T08:48:03;100413.16;;;40.02;22.24
63347;BME280;49472;49.880;8.650;2022-10-31T08:50:31;100412.91;;;40.63;21.63
63347;BME280;49472;49.880;8.650;2022-10-31T08:53:04;100405.66;;;40.41;21.83
63347;BME280;49472;49.880;8.650;2022-10-31T08:55:29;100413.78;;;39.85;22.27
63347;BME280;49472;49.880;8.650;2022-10-31T08:57:56;100409.91;;;40.42;21.99
63347;BME280;49472;49.880;8.650;2022-10-31T09:00:22;100404.63;;;40.28;21.86
63347;BME280;49472;49.880;8.650;2022-10-31T09:02:47;100407.22;;;39.64;22.61
63347;BME280;49472;49.880;8.650;2022-10-31T09:05:12;100404.59;;;40.14;22.37
63347;BME280;49472;49.880;8.650;2022-10-31T09:07:38;100405.66;;;40.41;22.03
63347;BME280;49472;49.880;8.650;2022-10-31T09:10:03;100401.13;;;40.50;22.01
63347;BME280;49472;49.880;8.650;2022-10-31T09:12:29;100407.44;;;39.81;22.59
63347;BME280;49472;49.880;8.650;2022-10-31T09:14:54;100398.59;;;39.39;22.96
63347;BME280;49472;49.880;8.650;2022-10-31T09:17:19;100411.47;;;39.37;23.07
63347;BME280;49472;49.880;8.650;2022-10-31T09:19:44;100402.84;;;39.68;22.80
63347;BME280;49472;49.880;8.650;2022-10-31T09:22:10;100411.41;;;39.84;22.58
63347;BME280;49472;49.880;8.650;2022-10-31T09:24:35;100406.88;;;39.24;23.56
63347;BME280;49472;49.880;8.650;2022-10-31T09:27:00;100404.16;;;39.98;22.48
63347;BME280;49472;49.880;8.650;2022-10-31T09:29:25;100401.84;;;40.05;22.70
63347;BME280;49472;49.880;8.650;2022-10-31T09:31:51;100398.78;;;40.48;22.14
63347;BME280;49472;49.880;8.650;2022-10-31T09:34:16;100398.09;;;40.65;22.18
63347;BME280;49472;49.880;8.650;2022-10-31T09:36:41;100392.06;;;40.60;22.35
63347;BME280;49472;49.880;8.650;2022-10-31T09:39:08;100387.94;;;40.53;22.36
63347;BME280;49472;49.880;8.650;2022-10-31T09:41:45;100393.66;;;40.83;22.22
63347;BME280;49472;49.880;8.650;2022-10-31T09:47:03;100390.25;;;39.68;22.93
63347;BME280;49472;49.880;8.650;2022-10-31T09:52:36;100384.31;;;40.58;22.64
63347;BME280;49472;49.880;8.650;2022-10-31T09:55:19;100384.28;;;40.13;22.93
63347;BME280;49472;49.880;8.650;2022-10-31T09:57:46;100390.28;;;40.32;22.71
63347;BME280;49472;49.880;8.650;2022-10-31T10:00:17;100383.56;;;40.80;22.43
63347;BME280;49472;49.880;8.650;2022-10-31T10:05:17;100373.69;;;41.20;22.14
63347;BME280;49472;49.880;8.650;2022-10-31T10:07:52;100374.72;;;40.79;22.28
63347;BME280;49472;49.880;8.650;2022-10-31T10:13:09;100371.38;;;40.74;22.56
63347;BME280;49472;49.880;8.650;2022-10-31T10:24:08;100369.53;;;41.46;22.01
63347;BME280;49472;49.880;8.650;2022-10-31T10:26:38;100367.59;;;41.37;22.20
63347;BME280;49472;49.880;8.650;2022-10-31T10:29:33;100359.59;;;41.55;22.13
63347;BME280;49472;49.880;8.650;2022-10-31T10:32:02;100370.38;;;41.72;22.08
63347;BME280;49472;49.880;8.650;2022-10-31T10:34:43;100361.25;;;41.91;21.76
63347;BME280;49472;49.880;8.650;2022-10-31T10:37:30;100357.94;;;41.76;21.94
63347;BME280;49472;49.880;8.650;2022-10-31T10:40:23;100351.09;;;41.53;22.29
63347;BME280;49472;49.880;8.650;2022-10-31T10:45:44;100350.50;;;41.82;21.99
63347;BME280;49472;49.880;8.650;2022-10-31T10:48:38;100340.75;;;42.38;21.59
63347;BME280;49472;49.880;8.650;2022-10-31T10:51:06;100341.22;;;42.40;21.54
63347;BME280;49472;49.880;8.650;2022-10-31T10:53:59;100337.19;;;42.72;21.67
63347;BME280;49472;49.880;8.650;2022-10-31T10:59:22;100331.88;;;42.46;21.50
63347;BME280;49472;49.880;8.650;2022-10-31T11:01:49;100326.09;;;42.74;21.64
63347;BME280;49472;49.880;8.650;2022-10-31T11:04:30;100320.63;;;43.09;20.76
63347;BME280;49472;49.880;8.650;2022-10-31T11:07:04;100317.50;;;42.98;21.20
63347;BME280;49472;49.880;8.650;2022-10-31T11:09:32;100320.66;;;43.00;21.29
63347;BME280;49472;49.880;8.650;2022-10-31T11:11:58;100311.88;;;43.21;21.47
63347;BME280;49472;49.880;8.650;2022-10-31T11:14:24;100307.75;;;42.85;21.22
63347;BME280;49472;49.880;8.650;2022-10-31T11:16:55;100308.34;;;43.29;21.22
63347;BME280;49472;49.880;8.650;2022-10-31T11:19:31;100304.72;;;43.25;21.31
63347;BME280;49472;49.880;8.650;2022-10-31T11:22:06;100302.63;;;44.02;21.06
63347;BME280;49472;49.880;8.650;2022-10-31T11:24:37;100300.66;;;43.90;20.77
63347;BME280;49472;49.880;8.650;2022-10-31T11:27:21;100298.22;;;43.97;20.96
63347;BME280;49472;49.880;8.650;2022-10-31T11:29:47;100285.81;;;45.37;20.10
63347;BME280;49472;49.880;8.650;2022-10-31T11:32:24;100283.19;;;45.24;19.55
63347;BME280;49472;49.880;8.650;2022-10-31T11:34:53;100280.44;;;45.37;20.03
63347;BME280;49472;49.880;8.650;2022-10-31T11:37:26;100273.00;;;45.46;19.67
63347;BME280;49472;49.880;8.650;2022-10-31T11:39:54;100265.19;;;44.79;19.88
63347;BME280;49472;49.880;8.650;2022-10-31T11:42:27;100265.06;;;44.88;20.67
63347;BME280;49472;49.880;8.650;2022-10-31T11:44:54;100264.06;;;44.68;20.06
63347;BME280;49472;49.880;8.650;2022-10-31T11:47:28;100255.00;;;45.38;20.23
63347;BME280;49472;49.880;8.650;2022-10-31T11:49:55;100253.13;;;44.64;20.48
63347;BME280;49472;49.880;8.650;2022-10-31T11:52:25;100254.34;;;45.16;20.29
63347;BME280;49472;49.880;8.650;2022-10-31T11:57:42;100243.97;;;45.55;19.71
63347;BME280;49472;49.880;8.650;2022-10-31T12:00:37;100245.19;;;44.35;20.60
63347;BME280;49472;49.880;8.650;2022-10-31T12:05:55;100240.53;;;44.93;20.46
63347;BME280;49472;49.880;8.650;2022-10-31T12:08:22;100237.97;;;45.09;20.70
63347;BME280;49472;49.880;8.650;2022-10-31T12:13:58;100233.41;;;45.38;19.66
63347;BME280;49472;49.880;8.650;2022-10-31T12:16:31;100227.41;;;45.57;20.14
63347;BME280;49472;49.880;8.650;2022-10-31T12:22:03;100229.72;;;46.30;19.78
63347;BME280;49472;49.880;8.650;2022-10-31T12:24:40;100224.09;;;45.11;19.99
63347;BME280;49472;49.880;8.650;2022-10-31T12:29:52;100227.13;;;45.21;19.61
63347;BME280;49472;49.880;8.650;2022-10-31T12:38:07;100218.66;;;45.76;19.55
63347;BME280;49472;49.880;8.650;2022-10-31T12:43:41;100209.81;;;45.63;19.63
63347;BME280;49472;49.880;8.650;2022-10-31T12:46:19;100203.69;;;44.48;20.69
63347;BME280;49472;49.880;8.650;2022-10-31T12:49:12;100188.69;;;45.53;19.91
63347;BME280;49472;49.880;8.650;2022-10-31T12:54:34;100181.22;;;45.34;19.78
63347;BME280;49472;49.880;8.650;2022-10-31T12:57:27;100171.84;;;45.43;20.13
63347;BME280;49472;49.880;8.650;2022-10-31T13:00:00;100162.25;;;45.46;19.98
63347;BME280;49472;49.880;8.650;2022-10-31T13:02:39;100159.47;;;45.42;19.91
63347;BME280;49472;49.880;8.650;2022-10-31T13:07:46;100138.13;;;46.29;19.56
63347;BME280;49472;49.880;8.650;2022-10-31T13:10:18;100135.25;;;46.38;19.64
63347;BME280;49472;49.880;8.650;2022-10-31T13:12:47;100135.38;;;45.94;19.79
63347;BME280;49472;49.880;8.650;2022-10-31T13:15:23;100140.38;;;45.35;20.09
63347;BME280;49472;49.880;8.650;2022-10-31T13:18:01;100140.97;;;45.57;19.89
63347;BME280;49472;49.880;8.650;2022-10-31T13:20:33;100143.66;;;45.28;19.88
63347;BME280;49472;49.880;8.650;2022-10-31T13:25:55;100137.56;;;45.32;20.29
63347;BME280;49472;49.880;8.650;2022-10-31T13:29:19;100125.94;;;45.43;20.02
63347;BME280;49472;49.880;8.650;2022-10-31T13:31:26;100119.31;;;45.00;20.32
63347;BME280;49472;49.880;8.650;2022-10-31T13:33:55;100118.50;;;45.12;20.60
63347;BME280;49472;49.880;8.650;2022-10-31T13:39:08;100116.78;;;44.67;21.04
63347;BME280;49472;49.880;8.650;2022-10-31T13:45:26;100105.69;;;44.19;21.11
63347;BME280;49472;49.880;8.650;2022-10-31T13:50:54;100096.59;;;44.36;21.16
63347;BME280;49472;49.880;8.650;2022-10-31T13:53:22;100098.63;;;44.39;20.83
63347;BME280;49472;49.880;8.650;2022-10-31T13:55:50;100093.66;;;44.17;20.79
63347;BME280;49472;49.880;8.650;2022-10-31T13:58:28;100086.28;;;44.38;21.00
63347;BME280;49472;49.880;8.650;2022-10-31T14:03:24;100081.72;;;43.81;21.24
63347;BME280;49472;49.880;8.650;2022-10-31T14:05:53;100076.38;;;44.42;20.71
63347;BME280;49472;49.880;8.650;2022-10-31T14:08:22;100067.84;;;44.28;21.00
63347;BME280;49472;49.880;8.650;2022-10-31T14:10:51;100068.53;;;44.25;21.31
63347;BME280;49472;49.880;8.650;2022-10-31T14:13:21;100062.75;;;44.63;20.87
63347;BME280;49472;49.880;8.650;2022-10-31T14:18:25;100057.28;;;44.35;21.43
63347;BME280;49472;49.880;8.650;2022-10-31T14:20:53;100050.22;;;46.35;20.37
63347;BME280;49472;49.880;8.650;2022-10-31T14:25:53;100070.47;;;46.41;19.46
63347;BME280;49472;49.880;8.650;2022-10-31T14:28:32;100091.16;;;46.33;19.50
63347;BME280;49472;49.880;8.650;2022-10-31T14:30:59;100096.47;;;46.14;19.60
63347;BME280;49472;49.880;8.650;2022-10-31T14:33:27;100104.56;;;46.14;19.78
63347;BME280;49472;49.880;8.650;2022-10-31T14:36:16;100103.69;;;45.62;19.62
63347;BME280;49472;49.880;8.650;2022-10-31T14:41:25;100101.06;;;45.66;20.17